Sevierville, TN

9:08 PM EST on November 26, 2014 (GMT -0500)
UT Field Station | Change Station
CLOSE
Current Station
Personal Weather Station
Location: Gatlinburg, TN
Elevation: 1586 ft
Nearby Weather Stations

Elev 1586 ft 35.74 °N, 83.42 °W | Updated 1 minute ago

Overcast
Overcast
40.2 °F
Feels Like 40 °F
N
0.0
Wind Variable Wind from WNW
Gusts 0.0 mph

Today
High -- | Low -- °F
--% Chance of Precip.
Yesterday
High -- | Low -- °F
Precip. -- in
7:20 AM 5:21 PM
Waxing Crescent, 24% visible
Pressure 30.01 in
Visibility 10.0 miles
Clouds Few 8000 ft
Mostly Cloudy 10000 ft
Overcast 25000 ft
Windchill 40 °F
Dew Point 26 °F
Humidity 57%
Rainfall 0.00 in
Snow Depth Not available.
UV 0 out of 12
Pollen .10 out of 12
Air Quality Not available.
Flu Activity Not available.
METAR KTYS 270153Z 19004KT 10SM FEW080 BKN100 OVC250 07/M02 A3001 RMK AO2 SLP163 T00671022

More Conditions Fewer Conditions

Pressure 30.01 in
Visibility 10.0 miles
Clouds Few 8000 ft
Mostly Cloudy 10000 ft
Overcast 25000 ft
Windchill 40 °F
Dew Point 26 °F
Humidity 57%
Rainfall 0.00 in
Snow Depth Not available.
UV 0 out of 12
Pollen .10 out of 12
Air Quality Not available.
Flu Activity Not available.
METAR KTYS 270153Z 19004KT 10SM FEW080 BKN100 OVC250 07/M02 A3001 RMK AO2 SLP163 T00671022

More Conditions Fewer Conditions

10-Day Weather Forecast

Almanac

Astronomy

Nov. 26, 2014 Rise Set
Actual Time
Civil Twilight
Nautical Twilight
Astronomical Twilight
Moon
Length of Visible Light
Length of Day
Tomorrow will be .
, % of the Moon is Illuminated

Today's Extremes

State Highs State Lows

Community

WunderPhotos

Upload Photos

1,773,942 photos uploaded!

WunderBlogs® & News

Nearby

Air Quality

  Air Quality AQ Index Pollutant
Not available.

Snow Depth

Station Depth Elevation

Earthquake Activity

City Distance Mag. Time & Date
Minimum magnitude displayed is 2.5.

Coastal Water Temperatures

Place Temperature

Nearby Weather Stations